sensor_id;sensor_type;location;lat;lon;timestamp;P1;durP1;ratioP1;P2;durP2;ratioP2
75272;SDS011;63869;52.344;16.928;2023-03-01T00:01:58;107.65;;;36.15;;
75272;SDS011;63869;52.344;16.928;2023-03-01T00:04:23;113.70;;;35.65;;
75272;SDS011;63869;52.344;16.928;2023-03-01T00:06:48;108.97;;;37.78;;
75272;SDS011;63869;52.344;16.928;2023-03-01T00:09:14;107.35;;;33.78;;
75272;SDS011;63869;52.344;16.928;2023-03-01T00:11:40;119.20;;;36.53;;
75272;SDS011;63869;52.344;16.928;2023-03-01T00:14:06;114.97;;;37.60;;
75272;SDS011;63869;52.344;16.928;2023-03-01T00:16:36;108.60;;;35.40;;
75272;SDS011;63869;52.344;16.928;2023-03-01T00:19:04;114.82;;;36.80;;
75272;SDS011;63869;52.344;16.928;2023-03-01T00:21:30;106.75;;;35.58;;
75272;SDS011;63869;52.344;16.928;2023-03-01T00:23:55;124.70;;;38.58;;
75272;SDS011;63869;52.344;16.928;2023-03-01T00:26:21;130.32;;;40.33;;
75272;SDS011;63869;52.344;16.928;2023-03-01T00:28:48;112.88;;;38.05;;
75272;SDS011;63869;52.344;16.928;2023-03-01T00:31:14;131.02;;;38.50;;
75272;SDS011;63869;52.344;16.928;2023-03-01T00:33:42;105.80;;;37.47;;
75272;SDS011;63869;52.344;16.928;2023-03-01T00:36:08;106.75;;;36.92;;
75272;SDS011;63869;52.344;16.928;2023-03-01T00:38:37;111.97;;;38.42;;
75272;SDS011;63869;52.344;16.928;2023-03-01T00:41:04;131.80;;;39.13;;
75272;SDS011;63869;52.344;16.928;2023-03-01T00:43:34;122.63;;;39.22;;
75272;SDS011;63869;52.344;16.928;2023-03-01T00:46:02;103.65;;;36.55;;
75272;SDS011;63869;52.344;16.928;2023-03-01T00:48:33;122.03;;;39.17;;
75272;SDS011;63869;52.344;16.928;2023-03-01T00:51:06;112.90;;;39.78;;
75272;SDS011;63869;52.344;16.928;2023-03-01T00:53:52;113.07;;;39.50;;
75272;SDS011;63869;52.344;16.928;2023-03-01T00:56:20;131.75;;;42.10;;
75272;SDS011;63869;52.344;16.928;2023-03-01T00:58:46;135.23;;;42.13;;
75272;SDS011;63869;52.344;16.928;2023-03-01T01:01:16;149.30;;;43.97;;
75272;SDS011;63869;52.344;16.928;2023-03-01T01:03:56;131.10;;;41.00;;
75272;SDS011;63869;52.344;16.928;2023-03-01T01:06:24;139.15;;;41.63;;
75272;SDS011;63869;52.344;16.928;2023-03-01T01:08:51;143.73;;;43.70;;
75272;SDS011;63869;52.344;16.928;2023-03-01T01:11:18;144.82;;;41.45;;
75272;SDS011;63869;52.344;16.928;2023-03-01T01:13:45;139.75;;;41.28;;
75272;SDS011;63869;52.344;16.928;2023-03-01T01:16:11;146.55;;;44.60;;
75272;SDS011;63869;52.344;16.928;2023-03-01T01:18:37;132.82;;;40.45;;
75272;SDS011;63869;52.344;16.928;2023-03-01T01:21:04;138.93;;;41.35;;
75272;SDS011;63869;52.344;16.928;2023-03-01T01:23:31;127.38;;;39.30;;
75272;SDS011;63869;52.344;16.928;2023-03-01T01:25:57;129.65;;;39.28;;
75272;SDS011;63869;52.344;16.928;2023-03-01T01:28:22;131.25;;;40.53;;
75272;SDS011;63869;52.344;16.928;2023-03-01T01:30:48;124.50;;;39.50;;
75272;SDS011;63869;52.344;16.928;2023-03-01T01:33:13;114.63;;;36.97;;
75272;SDS011;63869;52.344;16.928;2023-03-01T01:35:38;126.28;;;38.50;;
75272;SDS011;63869;52.344;16.928;2023-03-01T01:38:04;119.30;;;37.95;;
75272;SDS011;63869;52.344;16.928;2023-03-01T01:40:30;109.38;;;36.88;;
75272;SDS011;63869;52.344;16.928;2023-03-01T01:42:55;107.82;;;35.45;;
75272;SDS011;63869;52.344;16.928;2023-03-01T01:48:04;107.70;;;32.38;;
75272;SDS011;63869;52.344;16.928;2023-03-01T01:50:37;88.80;;;31.23;;
75272;SDS011;63869;52.344;16.928;2023-03-01T01:53:12;102.80;;;32.50;;
75272;SDS011;63869;52.344;16.928;2023-03-01T01:55:43;94.45;;;30.08;;
75272;SDS011;63869;52.344;16.928;2023-03-01T01:58:11;90.35;;;29.63;;
75272;SDS011;63869;52.344;16.928;2023-03-01T02:00:40;97.03;;;30.35;;
75272;SDS011;63869;52.344;16.928;2023-03-01T02:03:17;89.00;;;29.10;;
75272;SDS011;63869;52.344;16.928;2023-03-01T02:05:57;88.30;;;28.58;;
75272;SDS011;63869;52.344;16.928;2023-03-01T02:08:23;81.30;;;29.15;;
75272;SDS011;63869;52.344;16.928;2023-03-01T02:10:51;86.22;;;27.95;;
75272;SDS011;63869;52.344;16.928;2023-03-01T02:13:19;71.82;;;28.20;;
75272;SDS011;63869;52.344;16.928;2023-03-01T02:15:44;84.18;;;28.55;;
75272;SDS011;63869;52.344;16.928;2023-03-01T02:18:10;82.88;;;27.77;;
75272;SDS011;63869;52.344;16.928;2023-03-01T02:20:42;77.75;;;26.92;;
75272;SDS011;63869;52.344;16.928;2023-03-01T02:23:15;80.20;;;26.20;;
75272;SDS011;63869;52.344;16.928;2023-03-01T02:28:35;81.03;;;26.83;;
75272;SDS011;63869;52.344;16.928;2023-03-01T02:31:03;78.28;;;25.95;;
75272;SDS011;63869;52.344;16.928;2023-03-01T02:33:49;74.88;;;28.20;;
75272;SDS011;63869;52.344;16.928;2023-03-01T02:36:16;85.38;;;27.63;;
75272;SDS011;63869;52.344;16.928;2023-03-01T02:38:44;91.97;;;26.83;;
75272;SDS011;63869;52.344;16.928;2023-03-01T02:41:13;93.38;;;29.73;;
75272;SDS011;63869;52.344;16.928;2023-03-01T02:43:41;85.35;;;29.48;;
75272;SDS011;63869;52.344;16.928;2023-03-01T02:46:14;80.80;;;27.05;;
75272;SDS011;63869;52.344;16.928;2023-03-01T02:48:44;80.75;;;27.63;;
75272;SDS011;63869;52.344;16.928;2023-03-01T02:56:33;68.13;;;26.13;;
75272;SDS011;63869;52.344;16.928;2023-03-01T02:58:59;78.53;;;26.98;;
75272;SDS011;63869;52.344;16.928;2023-03-01T03:01:26;78.40;;;25.63;;
75272;SDS011;63869;52.344;16.928;2023-03-01T03:04:01;79.70;;;25.58;;
75272;SDS011;63869;52.344;16.928;2023-03-01T03:06:29;71.88;;;26.08;;
75272;SDS011;63869;52.344;16.928;2023-03-01T03:08:55;74.82;;;27.38;;
75272;SDS011;63869;52.344;16.928;2023-03-01T03:11:20;71.82;;;26.83;;
75272;SDS011;63869;52.344;16.928;2023-03-01T03:13:46;75.85;;;27.08;;
75272;SDS011;63869;52.344;16.928;2023-03-01T03:16:13;73.05;;;25.20;;
75272;SDS011;63869;52.344;16.928;2023-03-01T03:18:38;74.35;;;25.85;;
75272;SDS011;63869;52.344;16.928;2023-03-01T03:21:04;85.55;;;26.85;;
75272;SDS011;63869;52.344;16.928;2023-03-01T03:23:35;87.22;;;26.30;;
75272;SDS011;63869;52.344;16.928;2023-03-01T03:26:01;63.75;;;25.13;;
75272;SDS011;63869;52.344;16.928;2023-03-01T03:28:27;77.65;;;25.80;;
75272;SDS011;63869;52.344;16.928;2023-03-01T03:30:52;91.78;;;26.75;;
75272;SDS011;63869;52.344;16.928;2023-03-01T03:33:17;75.05;;;24.63;;
75272;SDS011;63869;52.344;16.928;2023-03-01T03:35:44;75.65;;;25.95;;
75272;SDS011;63869;52.344;16.928;2023-03-01T03:38:12;64.13;;;24.13;;
75272;SDS011;63869;52.344;16.928;2023-03-01T03:43:18;71.03;;;24.88;;
75272;SDS011;63869;52.344;16.928;2023-03-01T03:45:48;71.40;;;26.27;;
75272;SDS011;63869;52.344;16.928;2023-03-01T03:48:15;73.57;;;24.55;;
75272;SDS011;63869;52.344;16.928;2023-03-01T03:50:41;80.60;;;25.60;;
75272;SDS011;63869;52.344;16.928;2023-03-01T03:53:08;65.20;;;24.25;;
75272;SDS011;63869;52.344;16.928;2023-03-01T03:55:35;74.82;;;25.20;;
75272;SDS011;63869;52.344;16.928;2023-03-01T03:58:04;65.85;;;23.45;;
75272;SDS011;63869;52.344;16.928;2023-03-01T04:00:40;71.18;;;24.35;;
75272;SDS011;63869;52.344;16.928;2023-03-01T04:03:10;62.67;;;23.05;;
75272;SDS011;63869;52.344;16.928;2023-03-01T04:05:39;69.35;;;24.27;;
75272;SDS011;63869;52.344;16.928;2023-03-01T04:08:05;66.60;;;23.02;;
75272;SDS011;63869;52.344;16.928;2023-03-01T04:10:39;63.30;;;23.25;;
75272;SDS011;63869;52.344;16.928;2023-03-01T04:13:06;62.40;;;22.20;;
75272;SDS011;63869;52.344;16.928;2023-03-01T04:15:35;59.25;;;22.42;;
75272;SDS011;63869;52.344;16.928;2023-03-01T04:18:01;68.28;;;24.52;;
75272;SDS011;63869;52.344;16.928;2023-03-01T04:20:28;63.05;;;22.38;;
75272;SDS011;63869;52.344;16.928;2023-03-01T04:23:06;61.53;;;22.55;;
75272;SDS011;63869;52.344;16.928;2023-03-01T04:25:46;60.17;;;20.50;;
75272;SDS011;63869;52.344;16.928;2023-03-01T04:28:14;64.95;;;22.58;;
75272;SDS011;63869;52.344;16.928;2023-03-01T04:30:44;57.58;;;22.50;;
75272;SDS011;63869;52.344;16.928;2023-03-01T04:33:10;70.13;;;21.70;;
75272;SDS011;63869;52.344;16.928;2023-03-01T04:35:36;65.57;;;22.83;;
75272;SDS011;63869;52.344;16.928;2023-03-01T04:38:02;65.05;;;21.48;;
75272;SDS011;63869;52.344;16.928;2023-03-01T04:40:28;63.03;;;23.30;;
75272;SDS011;63869;52.344;16.928;2023-03-01T04:42:54;68.63;;;21.60;;
75272;SDS011;63869;52.344;16.928;2023-03-01T04:45:19;72.50;;;26.23;;
75272;SDS011;63869;52.344;16.928;2023-03-01T04:47:45;62.03;;;21.50;;
75272;SDS011;63869;52.344;16.928;2023-03-01T04:50:12;71.55;;;24.25;;
75272;SDS011;63869;52.344;16.928;2023-03-01T04:52:39;66.63;;;22.52;;
75272;SDS011;63869;52.344;16.928;2023-03-01T04:55:05;58.67;;;21.80;;
75272;SDS011;63869;52.344;16.928;2023-03-01T04:57:31;64.97;;;23.38;;
75272;SDS011;63869;52.344;16.928;2023-03-01T04:59:57;63.53;;;23.35;;
75272;SDS011;63869;52.344;16.928;2023-03-01T05:02:22;69.45;;;22.27;;
75272;SDS011;63869;52.344;16.928;2023-03-01T05:04:48;70.97;;;25.05;;
75272;SDS011;63869;52.344;16.928;2023-03-01T05:07:14;62.35;;;22.85;;
75272;SDS011;63869;52.344;16.928;2023-03-01T05:09:44;73.82;;;23.55;;
75272;SDS011;63869;52.344;16.928;2023-03-01T05:12:12;71.22;;;23.90;;
75272;SDS011;63869;52.344;16.928;2023-03-01T05:14:38;70.57;;;23.90;;
75272;SDS011;63869;52.344;16.928;2023-03-01T05:17:04;68.60;;;24.17;;
75272;SDS011;63869;52.344;16.928;2023-03-01T05:19:30;64.47;;;23.55;;
75272;SDS011;63869;52.344;16.928;2023-03-01T05:21:57;72.28;;;24.50;;
75272;SDS011;63869;52.344;16.928;2023-03-01T05:24:29;62.40;;;22.27;;
75272;SDS011;63869;52.344;16.928;2023-03-01T05:26:56;72.20;;;24.15;;
75272;SDS011;63869;52.344;16.928;2023-03-01T05:29:22;70.45;;;24.33;;
75272;SDS011;63869;52.344;16.928;2023-03-01T05:31:55;57.05;;;21.95;;
75272;SDS011;63869;52.344;16.928;2023-03-01T05:34:30;65.38;;;23.15;;
75272;SDS011;63869;52.344;16.928;2023-03-01T05:36:57;62.03;;;24.52;;
75272;SDS011;63869;52.344;16.928;2023-03-01T05:39:23;64.53;;;21.85;;
75272;SDS011;63869;52.344;16.928;2023-03-01T05:41:57;84.70;;;24.52;;
75272;SDS011;63869;52.344;16.928;2023-03-01T05:44:23;55.28;;;22.65;;
75272;SDS011;63869;52.344;16.928;2023-03-01T05:46:50;66.75;;;24.23;;
75272;SDS011;63869;52.344;16.928;2023-03-01T05:49:15;65.85;;;23.17;;
75272;SDS011;63869;52.344;16.928;2023-03-01T05:51:41;60.70;;;23.98;;
75272;SDS011;63869;52.344;16.928;2023-03-01T05:54:09;76.38;;;27.25;;
75272;SDS011;63869;52.344;16.928;2023-03-01T05:56:36;69.70;;;25.80;;
75272;SDS011;63869;52.344;16.928;2023-03-01T05:59:02;75.75;;;27.25;;
75272;SDS011;63869;52.344;16.928;2023-03-01T06:01:28;82.78;;;28.38;;
75272;SDS011;63869;52.344;16.928;2023-03-01T06:03:54;79.32;;;28.52;;
75272;SDS011;63869;52.344;16.928;2023-03-01T06:06:21;73.88;;;26.75;;
75272;SDS011;63869;52.344;16.928;2023-03-01T06:08:46;79.13;;;27.30;;
75272;SDS011;63869;52.344;16.928;2023-03-01T06:11:12;83.72;;;26.90;;
75272;SDS011;63869;52.344;16.928;2023-03-01T06:13:38;89.55;;;29.30;;
75272;SDS011;63869;52.344;16.928;2023-03-01T06:16:04;94.50;;;30.75;;
75272;SDS011;63869;52.344;16.928;2023-03-01T06:18:31;71.07;;;28.80;;
75272;SDS011;63869;52.344;16.928;2023-03-01T06:20:56;104.95;;;32.75;;
75272;SDS011;63869;52.344;16.928;2023-03-01T06:23:22;94.82;;;30.83;;
75272;SDS011;63869;52.344;16.928;2023-03-01T06:25:48;103.45;;;32.03;;
75272;SDS011;63869;52.344;16.928;2023-03-01T06:28:14;99.03;;;33.72;;
75272;SDS011;63869;52.344;16.928;2023-03-01T06:30:40;107.28;;;34.08;;
75272;SDS011;63869;52.344;16.928;2023-03-01T06:33:06;105.85;;;33.78;;
75272;SDS011;63869;52.344;16.928;2023-03-01T06:35:31;87.07;;;30.10;;
75272;SDS011;63869;52.344;16.928;2023-03-01T06:37:57;97.00;;;34.38;;
75272;SDS011;63869;52.344;16.928;2023-03-01T06:40:24;95.60;;;35.92;;
75272;SDS011;63869;52.344;16.928;2023-03-01T06:42:50;90.78;;;34.70;;
75272;SDS011;63869;52.344;16.928;2023-03-01T06:45:16;87.60;;;31.98;;
75272;SDS011;63869;52.344;16.928;2023-03-01T06:47:46;83.97;;;32.17;;
75272;SDS011;63869;52.344;16.928;2023-03-01T06:50:12;94.35;;;34.75;;
75272;SDS011;63869;52.344;16.928;2023-03-01T06:52:38;108.18;;;36.42;;
75272;SDS011;63869;52.344;16.928;2023-03-01T06:55:04;125.18;;;41.95;;
75272;SDS011;63869;52.344;16.928;2023-03-01T06:57:30;119.88;;;41.00;;
75272;SDS011;63869;52.344;16.928;2023-03-01T06:59:56;117.38;;;37.72;;
75272;SDS011;63869;52.344;16.928;2023-03-01T07:02:21;103.72;;;38.55;;
75272;SDS011;63869;52.344;16.928;2023-03-01T07:04:48;121.20;;;36.75;;
75272;SDS011;63869;52.344;16.928;2023-03-01T07:07:15;109.72;;;39.05;;
75272;SDS011;63869;52.344;16.928;2023-03-01T07:09:40;103.60;;;35.47;;
75272;SDS011;63869;52.344;16.928;2023-03-01T07:12:05;107.90;;;43.53;;
75272;SDS011;63869;52.344;16.928;2023-03-01T07:14:31;113.32;;;39.28;;
75272;SDS011;63869;52.344;16.928;2023-03-01T07:16:56;113.50;;;37.47;;
75272;SDS011;63869;52.344;16.928;2023-03-01T07:19:22;103.32;;;38.15;;
75272;SDS011;63869;52.344;16.928;2023-03-01T07:21:47;118.22;;;37.88;;
75272;SDS011;63869;52.344;16.928;2023-03-01T07:24:13;124.20;;;40.75;;
75272;SDS011;63869;52.344;16.928;2023-03-01T07:26:38;127.40;;;40.97;;
75272;SDS011;63869;52.344;16.928;2023-03-01T07:29:05;146.00;;;46.40;;
75272;SDS011;63869;52.344;16.928;2023-03-01T07:31:31;130.70;;;44.38;;
75272;SDS011;63869;52.344;16.928;2023-03-01T07:33:57;116.35;;;41.33;;
75272;SDS011;63869;52.344;16.928;2023-03-01T07:36:22;114.25;;;40.35;;
75272;SDS011;63869;52.344;16.928;2023-03-01T07:38:48;130.43;;;38.83;;
75272;SDS011;63869;52.344;16.928;2023-03-01T07:41:13;89.38;;;32.40;;
75272;SDS011;63869;52.344;16.928;2023-03-01T07:43:39;92.78;;;31.77;;
75272;SDS011;63869;52.344;16.928;2023-03-01T07:46:04;84.60;;;28.17;;
75272;SDS011;63869;52.344;16.928;2023-03-01T07:48:31;80.18;;;29.88;;
75272;SDS011;63869;52.344;16.928;2023-03-01T07:51:00;97.95;;;32.83;;
75272;SDS011;63869;52.344;16.928;2023-03-01T07:53:27;126.55;;;38.78;;
75272;SDS011;63869;52.344;16.928;2023-03-01T07:56:09;101.05;;;34.10;;
75272;SDS011;63869;52.344;16.928;2023-03-01T07:58:37;112.40;;;38.72;;
75272;SDS011;63869;52.344;16.928;2023-03-01T08:01:03;134.82;;;43.22;;
75272;SDS011;63869;52.344;16.928;2023-03-01T08:03:30;126.20;;;42.70;;
75272;SDS011;63869;52.344;16.928;2023-03-01T08:05:59;112.25;;;37.20;;
75272;SDS011;63869;52.344;16.928;2023-03-01T08:08:25;110.13;;;36.00;;
75272;SDS011;63869;52.344;16.928;2023-03-01T08:10:50;78.47;;;29.58;;
75272;SDS011;63869;52.344;16.928;2023-03-01T08:13:16;90.63;;;32.78;;
75272;SDS011;63869;52.344;16.928;2023-03-01T08:15:41;100.00;;;36.70;;
75272;SDS011;63869;52.344;16.928;2023-03-01T08:18:06;75.60;;;29.95;;
75272;SDS011;63869;52.344;16.928;2023-03-01T08:20:31;80.40;;;29.85;;
75272;SDS011;63869;52.344;16.928;2023-03-01T08:22:57;85.88;;;30.38;;
75272;SDS011;63869;52.344;16.928;2023-03-01T08:25:22;74.03;;;29.02;;
75272;SDS011;63869;52.344;16.928;2023-03-01T08:27:48;80.78;;;28.98;;
75272;SDS011;63869;52.344;16.928;2023-03-01T08:30:13;137.50;;;47.63;;
75272;SDS011;63869;52.344;16.928;2023-03-01T08:32:39;56.95;;;23.63;;
75272;SDS011;63869;52.344;16.928;2023-03-01T08:35:05;64.32;;;23.80;;
75272;SDS011;63869;52.344;16.928;2023-03-01T08:37:30;55.92;;;20.65;;
75272;SDS011;63869;52.344;16.928;2023-03-01T08:39:58;60.55;;;24.75;;
75272;SDS011;63869;52.344;16.928;2023-03-01T08:42:24;67.50;;;22.30;;
75272;SDS011;63869;52.344;16.928;2023-03-01T08:44:49;69.85;;;25.20;;
75272;SDS011;63869;52.344;16.928;2023-03-01T08:47:14;59.42;;;23.10;;
75272;SDS011;63869;52.344;16.928;2023-03-01T08:49:40;39.28;;;15.68;;
75272;SDS011;63869;52.344;16.928;2023-03-01T08:52:05;31.73;;;13.50;;
75272;SDS011;63869;52.344;16.928;2023-03-01T08:54:30;32.85;;;12.85;;
75272;SDS011;63869;52.344;16.928;2023-03-01T08:56:56;32.50;;;12.32;;
75272;SDS011;63869;52.344;16.928;2023-03-01T08:59:24;33.55;;;12.63;;
75272;SDS011;63869;52.344;16.928;2023-03-01T09:01:50;29.70;;;12.85;;
75272;SDS011;63869;52.344;16.928;2023-03-01T09:04:16;26.17;;;10.15;;
75272;SDS011;63869;52.344;16.928;2023-03-01T09:06:41;26.27;;;10.10;;
75272;SDS011;63869;52.344;16.928;2023-03-01T09:09:07;21.27;;;9.55;;
75272;SDS011;63869;52.344;16.928;2023-03-01T09:11:40;20.73;;;9.43;;
75272;SDS011;63869;52.344;16.928;2023-03-01T09:14:06;28.10;;;9.30;;
75272;SDS011;63869;52.344;16.928;2023-03-01T09:16:32;17.13;;;7.70;;
75272;SDS011;63869;52.344;16.928;2023-03-01T09:19:00;17.95;;;7.65;;
75272;SDS011;63869;52.344;16.928;2023-03-01T09:21:27;17.42;;;7.95;;
75272;SDS011;63869;52.344;16.928;2023-03-01T09:23:52;21.58;;;8.95;;
75272;SDS011;63869;52.344;16.928;2023-03-01T09:26:19;23.23;;;9.05;;
75272;SDS011;63869;52.344;16.928;2023-03-01T09:28:47;15.00;;;7.25;;
75272;SDS011;63869;52.344;16.928;2023-03-01T09:31:14;17.35;;;7.20;;
75272;SDS011;63869;52.344;16.928;2023-03-01T09:33:41;14.48;;;7.00;;
75272;SDS011;63869;52.344;16.928;2023-03-01T09:36:10;15.70;;;7.38;;
75272;SDS011;63869;52.344;16.928;2023-03-01T09:38:37;16.00;;;6.72;;
75272;SDS011;63869;52.344;16.928;2023-03-01T09:41:14;17.80;;;8.68;;
75272;SDS011;63869;52.344;16.928;2023-03-01T09:44:15;18.45;;;8.05;;
75272;SDS011;63869;52.344;16.928;2023-03-01T09:46:38;21.00;;;8.38;;
75272;SDS011;63869;52.344;16.928;2023-03-01T09:49:10;18.25;;;8.30;;
75272;SDS011;63869;52.344;16.928;2023-03-01T09:51:41;19.02;;;8.18;;
75272;SDS011;63869;52.344;16.928;2023-03-01T09:54:11;19.23;;;8.38;;
75272;SDS011;63869;52.344;16.928;2023-03-01T09:56:40;20.23;;;7.70;;
75272;SDS011;63869;52.344;16.928;2023-03-01T10:09:49;16.52;;;8.15;;
75272;SDS011;63869;52.344;16.928;2023-03-01T10:12:18;20.52;;;8.68;;
75272;SDS011;63869;52.344;16.928;2023-03-01T10:20:17;18.55;;;9.07;;
75272;SDS011;63869;52.344;16.928;2023-03-01T10:22:57;18.52;;;6.82;;
75272;SDS011;63869;52.344;16.928;2023-03-01T10:31:14;16.20;;;6.80;;
75272;SDS011;63869;52.344;16.928;2023-03-01T10:33:43;14.25;;;6.85;;
75272;SDS011;63869;52.344;16.928;2023-03-01T10:36:08;13.88;;;6.70;;
75272;SDS011;63869;52.344;16.928;2023-03-01T10:38:51;15.02;;;7.07;;
75272;SDS011;63869;52.344;16.928;2023-03-01T10:41:19;12.95;;;6.38;;
75272;SDS011;63869;52.344;16.928;2023-03-01T10:46:29;15.32;;;6.78;;
75272;SDS011;63869;52.344;16.928;2023-03-01T10:49:21;13.80;;;6.85;;
75272;SDS011;63869;52.344;16.928;2023-03-01T10:51:48;15.13;;;6.32;;
75272;SDS011;63869;52.344;16.928;2023-03-01T10:54:22;15.77;;;6.72;;
75272;SDS011;63869;52.344;16.928;2023-03-01T10:56:56;16.25;;;6.25;;
75272;SDS011;63869;52.344;16.928;2023-03-01T11:04:46;23.85;;;9.43;;
75272;SDS011;63869;52.344;16.928;2023-03-01T11:07:21;13.02;;;5.93;;
75272;SDS011;63869;52.344;16.928;2023-03-01T11:09:46;15.85;;;9.48;;
75272;SDS011;63869;52.344;16.928;2023-03-01T11:12:15;13.45;;;5.70;;
75272;SDS011;63869;52.344;16.928;2023-03-01T11:14:52;14.55;;;6.10;;
75272;SDS011;63869;52.344;16.928;2023-03-01T11:17:24;17.30;;;8.45;;
75272;SDS011;63869;52.344;16.928;2023-03-01T11:20:28;11.70;;;5.60;;
75272;SDS011;63869;52.344;16.928;2023-03-01T11:23:11;10.50;;;4.97;;
75272;SDS011;63869;52.344;16.928;2023-03-01T11:25:48;10.25;;;4.57;;
75272;SDS011;63869;52.344;16.928;2023-03-01T11:28:19;13.82;;;6.35;;
75272;SDS011;63869;52.344;16.928;2023-03-01T11:30:56;13.07;;;5.47;;
75272;SDS011;63869;52.344;16.928;2023-03-01T11:36:18;10.40;;;5.80;;
75272;SDS011;63869;52.344;16.928;2023-03-01T11:39:27;13.68;;;6.18;;
75272;SDS011;63869;52.344;16.928;2023-03-01T11:47:52;10.98;;;5.57;;
75272;SDS011;63869;52.344;16.928;2023-03-01T11:50:26;12.52;;;5.50;;
75272;SDS011;63869;52.344;16.928;2023-03-01T12:01:20;14.38;;;6.07;;
75272;SDS011;63869;52.344;16.928;2023-03-01T12:03:55;12.07;;;5.40;;
75272;SDS011;63869;52.344;16.928;2023-03-01T12:06:27;14.05;;;5.55;;
75272;SDS011;63869;52.344;16.928;2023-03-01T12:09:06;12.30;;;5.63;;
75272;SDS011;63869;52.344;16.928;2023-03-01T12:11:40;13.35;;;6.03;;
75272;SDS011;63869;52.344;16.928;2023-03-01T12:14:21;12.27;;;6.18;;
75272;SDS011;63869;52.344;16.928;2023-03-01T12:20:07;11.35;;;5.53;;
75272;SDS011;63869;52.344;16.928;2023-03-01T12:39:55;13.05;;;5.85;;
75272;SDS011;63869;52.344;16.928;2023-03-01T12:42:44;11.93;;;6.03;;
75272;SDS011;63869;52.344;16.928;2023-03-01T12:48:18;14.68;;;6.35;;
75272;SDS011;63869;52.344;16.928;2023-03-01T12:50:48;15.43;;;6.90;;
75272;SDS011;63869;52.344;16.928;2023-03-01T12:53:27;10.95;;;5.70;;
75272;SDS011;63869;52.344;16.928;2023-03-01T12:55:55;15.18;;;6.70;;
75272;SDS011;63869;52.344;16.928;2023-03-01T13:01:41;13.35;;;6.03;;
75272;SDS011;63869;52.344;16.928;2023-03-01T13:04:25;11.93;;;5.20;;
75272;SDS011;63869;52.344;16.928;2023-03-01T13:15:34;12.52;;;6.22;;
75272;SDS011;63869;52.344;16.928;2023-03-01T13:23:12;13.07;;;6.97;;
75272;SDS011;63869;52.344;16.928;2023-03-01T13:26:00;10.27;;;4.93;;
75272;SDS011;63869;52.344;16.928;2023-03-01T13:30:56;9.23;;;4.93;;
75272;SDS011;63869;52.344;16.928;2023-03-01T13:35:53;9.90;;;5.13;;
75272;SDS011;63869;52.344;16.928;2023-03-01T16:18:44;47.37;;;28.20;;
75272;SDS011;63869;52.344;16.928;2023-03-01T16:21:15;31.38;;;15.65;;
75272;SDS011;63869;52.344;16.928;2023-03-01T16:23:44;45.53;;;23.13;;
75272;SDS011;63869;52.344;16.928;2023-03-01T16:26:10;66.43;;;27.88;;
75272;SDS011;63869;52.344;16.928;2023-03-01T16:28:36;64.53;;;28.20;;
75272;SDS011;63869;52.344;16.928;2023-03-01T16:31:01;62.43;;;26.90;;
75272;SDS011;63869;52.344;16.928;2023-03-01T16:33:27;43.70;;;20.92;;
75272;SDS011;63869;52.344;16.928;2023-03-01T16:35:52;35.77;;;17.73;;
75272;SDS011;63869;52.344;16.928;2023-03-01T16:38:17;44.30;;;21.20;;
75272;SDS011;63869;52.344;16.928;2023-03-01T16:40:47;55.53;;;27.40;;
75272;SDS011;63869;52.344;16.928;2023-03-01T16:43:14;57.10;;;27.52;;
75272;SDS011;63869;52.344;16.928;2023-03-01T16:45:39;63.90;;;29.88;;
75272;SDS011;63869;52.344;16.928;2023-03-01T16:48:06;75.35;;;34.78;;
75272;SDS011;63869;52.344;16.928;2023-03-01T16:50:32;160.18;;;64.90;;
75272;SDS011;63869;52.344;16.928;2023-03-01T16:52:57;177.30;;;70.57;;
75272;SDS011;63869;52.344;16.928;2023-03-01T16:55:22;125.87;;;51.77;;
75272;SDS011;63869;52.344;16.928;2023-03-01T16:57:48;71.63;;;31.80;;
75272;SDS011;63869;52.344;16.928;2023-03-01T17:00:13;108.37;;;46.93;;
75272;SDS011;63869;52.344;16.928;2023-03-01T17:02:39;103.33;;;43.13;;
75272;SDS011;63869;52.344;16.928;2023-03-01T17:05:05;90.75;;;43.00;;
75272;SDS011;63869;52.344;16.928;2023-03-01T17:07:31;106.38;;;49.13;;
75272;SDS011;63869;52.344;16.928;2023-03-01T17:10:01;100.05;;;44.78;;
75272;SDS011;63869;52.344;16.928;2023-03-01T17:12:28;184.20;;;78.83;;
75272;SDS011;63869;52.344;16.928;2023-03-01T17:14:54;169.10;;;73.17;;
75272;SDS011;63869;52.344;16.928;2023-03-01T17:17:19;144.47;;;62.30;;
75272;SDS011;63869;52.344;16.928;2023-03-01T17:19:45;142.23;;;63.55;;
75272;SDS011;63869;52.344;16.928;2023-03-01T17:22:10;132.37;;;57.33;;
75272;SDS011;63869;52.344;16.928;2023-03-01T17:24:38;127.68;;;54.42;;
75272;SDS011;63869;52.344;16.928;2023-03-01T17:27:05;123.73;;;54.27;;
75272;SDS011;63869;52.344;16.928;2023-03-01T17:29:31;121.10;;;52.65;;
75272;SDS011;63869;52.344;16.928;2023-03-01T17:31:57;122.53;;;53.03;;
75272;SDS011;63869;52.344;16.928;2023-03-01T17:34:22;113.67;;;50.20;;
75272;SDS011;63869;52.344;16.928;2023-03-01T17:36:49;133.35;;;54.45;;
75272;SDS011;63869;52.344;16.928;2023-03-01T17:39:16;134.93;;;56.00;;
75272;SDS011;63869;52.344;16.928;2023-03-01T17:41:44;127.47;;;53.17;;
75272;SDS011;63869;52.344;16.928;2023-03-01T17:44:10;126.82;;;52.45;;
75272;SDS011;63869;52.344;16.928;2023-03-01T17:46:35;120.07;;;49.97;;
75272;SDS011;63869;52.344;16.928;2023-03-01T17:49:01;119.15;;;49.85;;
75272;SDS011;63869;52.344;16.928;2023-03-01T17:51:26;114.03;;;48.37;;
75272;SDS011;63869;52.344;16.928;2023-03-01T17:53:51;112.13;;;48.60;;
75272;SDS011;63869;52.344;16.928;2023-03-01T17:56:17;115.00;;;47.40;;
75272;SDS011;63869;52.344;16.928;2023-03-01T17:58:42;122.87;;;49.83;;
75272;SDS011;63869;52.344;16.928;2023-03-01T18:01:18;114.63;;;47.87;;
75272;SDS011;63869;52.344;16.928;2023-03-01T18:03:45;111.35;;;45.30;;
75272;SDS011;63869;52.344;16.928;2023-03-01T18:06:14;105.60;;;44.50;;
75272;SDS011;63869;52.344;16.928;2023-03-01T18:08:50;113.93;;;47.33;;
75272;SDS011;63869;52.344;16.928;2023-03-01T18:11:17;109.00;;;46.55;;
75272;SDS011;63869;52.344;16.928;2023-03-01T18:13:43;114.15;;;47.30;;
75272;SDS011;63869;52.344;16.928;2023-03-01T18:16:10;112.00;;;47.10;;
75272;SDS011;63869;52.344;16.928;2023-03-01T18:18:38;110.47;;;46.50;;
75272;SDS011;63869;52.344;16.928;2023-03-01T18:21:03;116.40;;;48.63;;
75272;SDS011;63869;52.344;16.928;2023-03-01T18:23:29;177.17;;;68.43;;
75272;SDS011;63869;52.344;16.928;2023-03-01T18:25:57;147.50;;;58.63;;
75272;SDS011;63869;52.344;16.928;2023-03-01T18:28:23;169.40;;;61.20;;
75272;SDS011;63869;52.344;16.928;2023-03-01T18:30:54;176.48;;;60.75;;
75272;SDS011;63869;52.344;16.928;2023-03-01T18:33:20;178.00;;;62.83;;
75272;SDS011;63869;52.344;16.928;2023-03-01T18:35:45;184.17;;;66.50;;
75272;SDS011;63869;52.344;16.928;2023-03-01T18:38:13;255.18;;;92.60;;
75272;SDS011;63869;52.344;16.928;2023-03-01T18:40:40;262.90;;;96.50;;